sensor_id;sensor_type;location;lat;lon;timestamp;P1;durP1;ratioP1;P2;durP2;ratioP2
3267;SDS011;1646;52.450;13.326;2023-04-09T00:00:33;44.87;;;24.10;;
3267;SDS011;1646;52.450;13.326;2023-04-09T00:05:36;47.23;;;25.57;;
3267;SDS011;1646;52.450;13.326;2023-04-09T00:10:35;46.10;;;24.80;;
3267;SDS011;1646;52.450;13.326;2023-04-09T00:15:33;48.17;;;24.17;;
3267;SDS011;1646;52.450;13.326;2023-04-09T00:20:33;45.23;;;24.63;;
3267;SDS011;1646;52.450;13.326;2023-04-09T00:25:31;53.13;;;26.83;;
3267;SDS011;1646;52.450;13.326;2023-04-09T00:30:30;47.53;;;25.07;;
3267;SDS011;1646;52.450;13.326;2023-04-09T00:35:28;46.53;;;24.93;;
3267;SDS011;1646;52.450;13.326;2023-04-09T00:40:28;48.80;;;24.40;;
3267;SDS011;1646;52.450;13.326;2023-04-09T00:45:26;43.87;;;23.97;;
3267;SDS011;1646;52.450;13.326;2023-04-09T00:50:25;46.77;;;25.40;;
3267;SDS011;1646;52.450;13.326;2023-04-09T00:55:23;48.03;;;24.70;;
3267;SDS011;1646;52.450;13.326;2023-04-09T01:00:23;49.23;;;24.00;;
3267;SDS011;1646;52.450;13.326;2023-04-09T01:05:23;50.17;;;25.30;;
3267;SDS011;1646;52.450;13.326;2023-04-09T01:10:26;49.97;;;25.83;;
3267;SDS011;1646;52.450;13.326;2023-04-09T01:15:32;49.83;;;25.93;;
3267;SDS011;1646;52.450;13.326;2023-04-09T01:20:38;50.70;;;25.47;;
3267;SDS011;1646;52.450;13.326;2023-04-09T01:25:43;46.63;;;26.07;;
3267;SDS011;1646;52.450;13.326;2023-04-09T01:30:49;49.00;;;25.27;;
3267;SDS011;1646;52.450;13.326;2023-04-09T01:35:54;51.43;;;25.83;;
3267;SDS011;1646;52.450;13.326;2023-04-09T01:40:54;50.00;;;24.90;;
3267;SDS011;1646;52.450;13.326;2023-04-09T01:45:55;48.40;;;25.27;;
3267;SDS011;1646;52.450;13.326;2023-04-09T01:50:55;49.77;;;25.90;;
3267;SDS011;1646;52.450;13.326;2023-04-09T01:55:54;44.27;;;24.63;;
3267;SDS011;1646;52.450;13.326;2023-04-09T02:00:53;55.20;;;26.00;;
3267;SDS011;1646;52.450;13.326;2023-04-09T02:06:00;49.63;;;27.20;;
3267;SDS011;1646;52.450;13.326;2023-04-09T02:11:05;49.77;;;25.37;;
3267;SDS011;1646;52.450;13.326;2023-04-09T02:16:09;44.57;;;24.27;;
3267;SDS011;1646;52.450;13.326;2023-04-09T02:21:10;47.97;;;24.60;;
3267;SDS011;1646;52.450;13.326;2023-04-09T02:26:09;45.63;;;25.37;;
3267;SDS011;1646;52.450;13.326;2023-04-09T02:31:09;46.93;;;24.57;;
3267;SDS011;1646;52.450;13.326;2023-04-09T02:36:09;42.60;;;22.10;;
3267;SDS011;1646;52.450;13.326;2023-04-09T02:41:08;49.50;;;27.03;;
3267;SDS011;1646;52.450;13.326;2023-04-09T02:46:08;52.93;;;26.00;;
3267;SDS011;1646;52.450;13.326;2023-04-09T02:51:07;47.20;;;24.73;;
3267;SDS011;1646;52.450;13.326;2023-04-09T02:56:05;47.57;;;25.47;;
3267;SDS011;1646;52.450;13.326;2023-04-09T03:01:03;40.97;;;23.30;;
3267;SDS011;1646;52.450;13.326;2023-04-09T03:06:03;47.43;;;24.53;;
3267;SDS011;1646;52.450;13.326;2023-04-09T03:11:01;44.20;;;23.93;;
3267;SDS011;1646;52.450;13.326;2023-04-09T03:16:00;46.90;;;25.20;;
3267;SDS011;1646;52.450;13.326;2023-04-09T03:20:58;47.40;;;26.80;;
3267;SDS011;1646;52.450;13.326;2023-04-09T03:26:02;49.60;;;26.50;;
3267;SDS011;1646;52.450;13.326;2023-04-09T03:31:12;49.10;;;24.53;;
3267;SDS011;1646;52.450;13.326;2023-04-09T03:36:12;52.03;;;27.67;;
3267;SDS011;1646;52.450;13.326;2023-04-09T03:41:28;54.47;;;26.07;;
3267;SDS011;1646;52.450;13.326;2023-04-09T03:46:30;47.90;;;25.20;;
3267;SDS011;1646;52.450;13.326;2023-04-09T03:51:30;52.03;;;25.90;;
3267;SDS011;1646;52.450;13.326;2023-04-09T03:56:30;52.33;;;27.33;;
3267;SDS011;1646;52.450;13.326;2023-04-09T04:01:31;54.67;;;26.20;;
3267;SDS011;1646;52.450;13.326;2023-04-09T04:06:32;54.50;;;27.63;;
3267;SDS011;1646;52.450;13.326;2023-04-09T04:11:52;55.73;;;28.13;;
3267;SDS011;1646;52.450;13.326;2023-04-09T04:16:55;51.50;;;27.07;;
3267;SDS011;1646;52.450;13.326;2023-04-09T04:21:57;55.53;;;27.60;;
3267;SDS011;1646;52.450;13.326;2023-04-09T04:26:57;53.53;;;27.37;;
3267;SDS011;1646;52.450;13.326;2023-04-09T04:32:01;51.20;;;26.57;;
3267;SDS011;1646;52.450;13.326;2023-04-09T04:37:05;48.87;;;26.57;;
3267;SDS011;1646;52.450;13.326;2023-04-09T04:42:04;51.07;;;25.70;;
3267;SDS011;1646;52.450;13.326;2023-04-09T04:47:03;58.50;;;27.53;;
3267;SDS011;1646;52.450;13.326;2023-04-09T04:52:02;50.53;;;26.23;;
3267;SDS011;1646;52.450;13.326;2023-04-09T04:57:01;51.60;;;25.30;;
3267;SDS011;1646;52.450;13.326;2023-04-09T05:02:09;44.23;;;23.97;;
3267;SDS011;1646;52.450;13.326;2023-04-09T05:07:18;61.13;;;25.73;;
3267;SDS011;1646;52.450;13.326;2023-04-09T05:12:20;49.63;;;25.20;;
3267;SDS011;1646;52.450;13.326;2023-04-09T05:17:22;46.67;;;25.40;;
3267;SDS011;1646;52.450;13.326;2023-04-09T05:22:21;58.40;;;26.33;;
3267;SDS011;1646;52.450;13.326;2023-04-09T05:27:20;44.53;;;24.20;;
3267;SDS011;1646;52.450;13.326;2023-04-09T05:32:27;50.40;;;24.70;;
3267;SDS011;1646;52.450;13.326;2023-04-09T05:37:26;52.93;;;25.77;;
3267;SDS011;1646;52.450;13.326;2023-04-09T05:42:25;57.30;;;26.17;;
3267;SDS011;1646;52.450;13.326;2023-04-09T05:47:34;80.47;;;32.40;;
3267;SDS011;1646;52.450;13.326;2023-04-09T05:52:39;64.43;;;30.40;;
3267;SDS011;1646;52.450;13.326;2023-04-09T05:57:40;71.40;;;31.23;;
3267;SDS011;1646;52.450;13.326;2023-04-09T06:02:42;72.93;;;31.60;;
3267;SDS011;1646;52.450;13.326;2023-04-09T06:07:41;75.50;;;33.37;;
3267;SDS011;1646;52.450;13.326;2023-04-09T06:12:40;84.53;;;35.60;;
3267;SDS011;1646;52.450;13.326;2023-04-09T06:17:38;76.53;;;31.80;;
3267;SDS011;1646;52.450;13.326;2023-04-09T06:22:38;66.87;;;32.07;;
3267;SDS011;1646;52.450;13.326;2023-04-09T06:27:36;79.77;;;33.63;;
3267;SDS011;1646;52.450;13.326;2023-04-09T06:32:34;68.90;;;31.50;;
3267;SDS011;1646;52.450;13.326;2023-04-09T06:37:50;77.47;;;32.90;;
3267;SDS011;1646;52.450;13.326;2023-04-09T06:42:48;68.87;;;33.37;;
3267;SDS011;1646;52.450;13.326;2023-04-09T06:47:55;71.43;;;31.63;;
3267;SDS011;1646;52.450;13.326;2023-04-09T06:52:56;69.10;;;31.67;;
3267;SDS011;1646;52.450;13.326;2023-04-09T06:57:54;63.97;;;30.77;;
3267;SDS011;1646;52.450;13.326;2023-04-09T07:02:52;62.40;;;30.67;;
3267;SDS011;1646;52.450;13.326;2023-04-09T07:07:51;64.80;;;31.27;;
3267;SDS011;1646;52.450;13.326;2023-04-09T07:12:50;57.17;;;30.63;;
3267;SDS011;1646;52.450;13.326;2023-04-09T07:17:49;58.13;;;30.50;;
3267;SDS011;1646;52.450;13.326;2023-04-09T07:22:47;55.70;;;29.90;;
3267;SDS011;1646;52.450;13.326;2023-04-09T07:27:45;54.30;;;28.23;;
3267;SDS011;1646;52.450;13.326;2023-04-09T07:32:46;49.57;;;27.07;;
3267;SDS011;1646;52.450;13.326;2023-04-09T07:37:44;43.37;;;24.17;;
3267;SDS011;1646;52.450;13.326;2023-04-09T07:42:43;55.77;;;27.60;;
3267;SDS011;1646;52.450;13.326;2023-04-09T07:47:41;46.73;;;25.37;;
3267;SDS011;1646;52.450;13.326;2023-04-09T07:52:41;50.67;;;27.40;;
3267;SDS011;1646;52.450;13.326;2023-04-09T07:57:39;45.43;;;26.50;;
3267;SDS011;1646;52.450;13.326;2023-04-09T08:02:38;44.20;;;24.07;;
3267;SDS011;1646;52.450;13.326;2023-04-09T08:07:37;43.33;;;25.10;;
3267;SDS011;1646;52.450;13.326;2023-04-09T08:12:36;49.57;;;27.00;;
3267;SDS011;1646;52.450;13.326;2023-04-09T08:17:35;46.93;;;26.07;;
3267;SDS011;1646;52.450;13.326;2023-04-09T08:22:33;44.23;;;25.03;;
3267;SDS011;1646;52.450;13.326;2023-04-09T08:27:32;42.10;;;25.57;;
3267;SDS011;1646;52.450;13.326;2023-04-09T08:32:32;46.97;;;26.13;;
3267;SDS011;1646;52.450;13.326;2023-04-09T08:37:31;44.87;;;25.60;;
3267;SDS011;1646;52.450;13.326;2023-04-09T08:42:30;41.50;;;25.00;;
3267;SDS011;1646;52.450;13.326;2023-04-09T08:47:32;39.17;;;23.77;;
3267;SDS011;1646;52.450;13.326;2023-04-09T08:52:33;40.83;;;24.63;;
3267;SDS011;1646;52.450;13.326;2023-04-09T08:57:35;40.93;;;26.03;;
3267;SDS011;1646;52.450;13.326;2023-04-09T09:02:35;40.97;;;25.50;;
3267;SDS011;1646;52.450;13.326;2023-04-09T09:07:35;40.27;;;25.30;;
3267;SDS011;1646;52.450;13.326;2023-04-09T09:12:34;36.10;;;22.93;;
3267;SDS011;1646;52.450;13.326;2023-04-09T09:17:34;39.53;;;24.40;;
3267;SDS011;1646;52.450;13.326;2023-04-09T09:22:53;36.80;;;23.50;;
3267;SDS011;1646;52.450;13.326;2023-04-09T09:27:53;34.47;;;23.97;;
3267;SDS011;1646;52.450;13.326;2023-04-09T09:32:52;34.40;;;24.67;;
3267;SDS011;1646;52.450;13.326;2023-04-09T09:38:01;36.17;;;25.27;;
3267;SDS011;1646;52.450;13.326;2023-04-09T09:43:00;35.80;;;24.03;;
3267;SDS011;1646;52.450;13.326;2023-04-09T09:48:00;39.00;;;26.67;;
3267;SDS011;1646;52.450;13.326;2023-04-09T09:53:00;37.10;;;24.63;;
3267;SDS011;1646;52.450;13.326;2023-04-09T09:58:01;35.20;;;23.30;;
3267;SDS011;1646;52.450;13.326;2023-04-09T10:03:10;32.10;;;23.27;;
3267;SDS011;1646;52.450;13.326;2023-04-09T10:08:11;35.07;;;24.30;;
3267;SDS011;1646;52.450;13.326;2023-04-09T10:18:13;39.23;;;26.60;;
3267;SDS011;1646;52.450;13.326;2023-04-09T10:23:14;34.97;;;23.93;;
3267;SDS011;1646;52.450;13.326;2023-04-09T10:28:18;36.00;;;24.70;;
3267;SDS011;1646;52.450;13.326;2023-04-09T10:33:21;31.43;;;23.07;;
3267;SDS011;1646;52.450;13.326;2023-04-09T10:38:34;38.33;;;27.37;;
3267;SDS011;1646;52.450;13.326;2023-04-09T10:43:34;41.40;;;26.03;;
3267;SDS011;1646;52.450;13.326;2023-04-09T10:48:34;33.97;;;23.70;;
3267;SDS011;1646;52.450;13.326;2023-04-09T10:53:32;36.80;;;25.37;;
3267;SDS011;1646;52.450;13.326;2023-04-09T10:58:31;35.37;;;25.20;;
3267;SDS011;1646;52.450;13.326;2023-04-09T11:03:30;35.50;;;25.07;;
3267;SDS011;1646;52.450;13.326;2023-04-09T11:08:38;41.43;;;26.37;;
3267;SDS011;1646;52.450;13.326;2023-04-09T11:13:39;34.73;;;22.90;;
3267;SDS011;1646;52.450;13.326;2023-04-09T11:18:39;33.40;;;24.40;;
3267;SDS011;1646;52.450;13.326;2023-04-09T11:23:38;33.20;;;23.13;;
3267;SDS011;1646;52.450;13.326;2023-04-09T11:28:36;34.60;;;21.97;;
3267;SDS011;1646;52.450;13.326;2023-04-09T11:33:40;32.80;;;21.50;;
3267;SDS011;1646;52.450;13.326;2023-04-09T11:38:42;32.43;;;21.27;;
3267;SDS011;1646;52.450;13.326;2023-04-09T11:43:41;33.50;;;21.67;;
3267;SDS011;1646;52.450;13.326;2023-04-09T11:48:40;31.40;;;20.47;;
3267;SDS011;1646;52.450;13.326;2023-04-09T11:53:39;34.63;;;21.00;;
3267;SDS011;1646;52.450;13.326;2023-04-09T11:58:37;29.13;;;19.60;;
3267;SDS011;1646;52.450;13.326;2023-04-09T12:03:43;27.30;;;19.10;;
3267;SDS011;1646;52.450;13.326;2023-04-09T12:08:51;31.10;;;19.80;;
3267;SDS011;1646;52.450;13.326;2023-04-09T12:13:57;24.90;;;17.13;;
3267;SDS011;1646;52.450;13.326;2023-04-09T12:18:57;27.10;;;18.07;;
3267;SDS011;1646;52.450;13.326;2023-04-09T12:23:57;25.53;;;16.10;;
3267;SDS011;1646;52.450;13.326;2023-04-09T12:28:56;25.20;;;16.10;;
3267;SDS011;1646;52.450;13.326;2023-04-09T12:33:54;24.00;;;16.60;;
3267;SDS011;1646;52.450;13.326;2023-04-09T12:38:53;24.83;;;14.93;;
3267;SDS011;1646;52.450;13.326;2023-04-09T12:43:52;20.97;;;13.63;;
3267;SDS011;1646;52.450;13.326;2023-04-09T12:48:50;20.97;;;14.97;;
3267;SDS011;1646;52.450;13.326;2023-04-09T12:53:48;22.13;;;14.80;;
3267;SDS011;1646;52.450;13.326;2023-04-09T12:58:48;20.63;;;13.77;;
3267;SDS011;1646;52.450;13.326;2023-04-09T13:03:47;20.97;;;14.50;;
3267;SDS011;1646;52.450;13.326;2023-04-09T13:08:45;21.80;;;12.33;;
3267;SDS011;1646;52.450;13.326;2023-04-09T13:13:44;19.07;;;13.47;;
3267;SDS011;1646;52.450;13.326;2023-04-09T13:18:43;17.53;;;12.27;;
3267;SDS011;1646;52.450;13.326;2023-04-09T13:23:42;19.03;;;12.83;;
3267;SDS011;1646;52.450;13.326;2023-04-09T13:28:40;18.90;;;12.10;;
3267;SDS011;1646;52.450;13.326;2023-04-09T13:33:40;16.40;;;11.93;;
3267;SDS011;1646;52.450;13.326;2023-04-09T13:38:39;16.70;;;9.97;;
3267;SDS011;1646;52.450;13.326;2023-04-09T13:43:37;18.93;;;12.30;;
3267;SDS011;1646;52.450;13.326;2023-04-09T13:48:35;18.73;;;12.57;;
3267;SDS011;1646;52.450;13.326;2023-04-09T13:53:34;16.17;;;11.00;;
3267;SDS011;1646;52.450;13.326;2023-04-09T13:58:33;15.00;;;10.40;;
3267;SDS011;1646;52.450;13.326;2023-04-09T14:03:32;11.57;;;8.57;;
3267;SDS011;1646;52.450;13.326;2023-04-09T14:08:30;18.67;;;11.00;;
3267;SDS011;1646;52.450;13.326;2023-04-09T14:13:28;14.30;;;10.30;;
3267;SDS011;1646;52.450;13.326;2023-04-09T14:18:28;16.57;;;8.50;;
3267;SDS011;1646;52.450;13.326;2023-04-09T14:23:26;16.57;;;10.20;;
3267;SDS011;1646;52.450;13.326;2023-04-09T14:28:24;13.47;;;9.77;;
3267;SDS011;1646;52.450;13.326;2023-04-09T14:33:23;14.70;;;9.20;;
3267;SDS011;1646;52.450;13.326;2023-04-09T14:38:22;10.90;;;8.10;;
3267;SDS011;1646;52.450;13.326;2023-04-09T14:43:21;13.00;;;9.80;;
3267;SDS011;1646;52.450;13.326;2023-04-09T14:48:19;12.63;;;9.30;;
3267;SDS011;1646;52.450;13.326;2023-04-09T14:53:17;12.87;;;9.20;;
3267;SDS011;1646;52.450;13.326;2023-04-09T14:58:17;12.40;;;8.90;;
3267;SDS011;1646;52.450;13.326;2023-04-09T15:03:16;15.23;;;10.10;;
3267;SDS011;1646;52.450;13.326;2023-04-09T15:08:14;15.20;;;10.20;;
3267;SDS011;1646;52.450;13.326;2023-04-09T15:13:13;12.13;;;8.67;;
3267;SDS011;1646;52.450;13.326;2023-04-09T15:18:12;13.93;;;10.13;;
3267;SDS011;1646;52.450;13.326;2023-04-09T15:23:10;14.87;;;10.27;;
3267;SDS011;1646;52.450;13.326;2023-04-09T15:28:09;15.23;;;10.70;;
3267;SDS011;1646;52.450;13.326;2023-04-09T15:33:07;15.87;;;10.80;;
3267;SDS011;1646;52.450;13.326;2023-04-09T15:38:07;15.53;;;9.83;;
3267;SDS011;1646;52.450;13.326;2023-04-09T15:43:05;14.07;;;9.47;;
3267;SDS011;1646;52.450;13.326;2023-04-09T15:48:04;15.23;;;9.90;;
3267;SDS011;1646;52.450;13.326;2023-04-09T15:53:02;16.70;;;10.67;;
3267;SDS011;1646;52.450;13.326;2023-04-09T15:58:02;14.80;;;9.70;;
3267;SDS011;1646;52.450;13.326;2023-04-09T16:03:00;16.70;;;11.67;;
3267;SDS011;1646;52.450;13.326;2023-04-09T16:07:58;20.37;;;12.43;;
3267;SDS011;1646;52.450;13.326;2023-04-09T16:12:57;22.87;;;14.03;;
3267;SDS011;1646;52.450;13.326;2023-04-09T16:17:56;20.67;;;13.63;;
3267;SDS011;1646;52.450;13.326;2023-04-09T16:22:54;22.97;;;14.47;;
3267;SDS011;1646;52.450;13.326;2023-04-09T16:27:53;23.87;;;16.00;;
3267;SDS011;1646;52.450;13.326;2023-04-09T16:32:51;30.73;;;17.70;;
3267;SDS011;1646;52.450;13.326;2023-04-09T16:37:51;22.50;;;15.30;;
3267;SDS011;1646;52.450;13.326;2023-04-09T16:42:49;25.33;;;15.80;;
3267;SDS011;1646;52.450;13.326;2023-04-09T16:47:47;43.97;;;22.90;;
3267;SDS011;1646;52.450;13.326;2023-04-09T16:52:49;25.70;;;16.77;;
3267;SDS011;1646;52.450;13.326;2023-04-09T16:57:48;25.20;;;15.13;;
3267;SDS011;1646;52.450;13.326;2023-04-09T17:02:47;18.63;;;13.40;;
3267;SDS011;1646;52.450;13.326;2023-04-09T17:07:46;17.07;;;12.93;;
3267;SDS011;1646;52.450;13.326;2023-04-09T17:12:44;18.70;;;12.27;;
3267;SDS011;1646;52.450;13.326;2023-04-09T17:17:44;17.53;;;11.87;;
3267;SDS011;1646;52.450;13.326;2023-04-09T17:22:44;15.67;;;11.43;;
3267;SDS011;1646;52.450;13.326;2023-04-09T17:27:43;16.70;;;11.00;;
3267;SDS011;1646;52.450;13.326;2023-04-09T17:32:41;16.83;;;10.67;;
3267;SDS011;1646;52.450;13.326;2023-04-09T17:37:41;15.10;;;10.50;;
3267;SDS011;1646;52.450;13.326;2023-04-09T17:42:39;12.93;;;9.37;;
3267;SDS011;1646;52.450;13.326;2023-04-09T17:47:37;19.47;;;12.00;;
3267;SDS011;1646;52.450;13.326;2023-04-09T17:52:36;19.80;;;11.37;;
3267;SDS011;1646;52.450;13.326;2023-04-09T17:57:36;18.00;;;12.70;;
3267;SDS011;1646;52.450;13.326;2023-04-09T18:02:34;19.93;;;12.73;;
3267;SDS011;1646;52.450;13.326;2023-04-09T18:07:32;18.27;;;12.27;;
3267;SDS011;1646;52.450;13.326;2023-04-09T18:12:31;23.00;;;14.83;;
3267;SDS011;1646;52.450;13.326;2023-04-09T18:17:31;27.13;;;15.63;;
3267;SDS011;1646;52.450;13.326;2023-04-09T18:22:29;22.90;;;13.93;;
3267;SDS011;1646;52.450;13.326;2023-04-09T18:27:27;22.80;;;13.90;;
3267;SDS011;1646;52.450;13.326;2023-04-09T18:32:25;24.00;;;15.53;;
3267;SDS011;1646;52.450;13.326;2023-04-09T18:37:25;25.00;;;15.50;;
3267;SDS011;1646;52.450;13.326;2023-04-09T18:42:24;25.80;;;15.27;;
3267;SDS011;1646;52.450;13.326;2023-04-09T18:47:22;22.23;;;15.50;;
3267;SDS011;1646;52.450;13.326;2023-04-09T18:52:21;25.17;;;14.57;;
3267;SDS011;1646;52.450;13.326;2023-04-09T18:57:21;22.93;;;14.73;;
3267;SDS011;1646;52.450;13.326;2023-04-09T19:02:19;24.47;;;14.60;;
3267;SDS011;1646;52.450;13.326;2023-04-09T19:07:17;25.60;;;15.97;;
3267;SDS011;1646;52.450;13.326;2023-04-09T19:12:16;24.90;;;15.43;;
3267;SDS011;1646;52.450;13.326;2023-04-09T19:17:15;26.43;;;15.83;;
3267;SDS011;1646;52.450;13.326;2023-04-09T19:22:14;23.17;;;15.47;;
3267;SDS011;1646;52.450;13.326;2023-04-09T19:27:12;29.47;;;16.77;;
3267;SDS011;1646;52.450;13.326;2023-04-09T19:32:10;26.73;;;16.30;;
3267;SDS011;1646;52.450;13.326;2023-04-09T19:37:10;27.47;;;17.00;;
3267;SDS011;1646;52.450;13.326;2023-04-09T19:42:10;26.00;;;14.60;;
3267;SDS011;1646;52.450;13.326;2023-04-09T19:47:08;25.70;;;15.40;;
3267;SDS011;1646;52.450;13.326;2023-04-09T19:52:07;28.30;;;16.63;;
3267;SDS011;1646;52.450;13.326;2023-04-09T19:57:07;29.57;;;17.07;;
3267;SDS011;1646;52.450;13.326;2023-04-09T20:02:05;26.63;;;16.50;;
3267;SDS011;1646;52.450;13.326;2023-04-09T20:07:04;33.03;;;17.90;;
3267;SDS011;1646;52.450;13.326;2023-04-09T20:12:02;33.83;;;19.97;;
3267;SDS011;1646;52.450;13.326;2023-04-09T20:17:05;35.67;;;20.10;;
3267;SDS011;1646;52.450;13.326;2023-04-09T20:22:05;35.23;;;20.17;;
3267;SDS011;1646;52.450;13.326;2023-04-09T20:27:03;40.00;;;22.83;;
3267;SDS011;1646;52.450;13.326;2023-04-09T20:32:02;39.50;;;21.63;;
3267;SDS011;1646;52.450;13.326;2023-04-09T20:37:01;38.43;;;20.60;;
3267;SDS011;1646;52.450;13.326;2023-04-09T20:42:01;37.17;;;21.23;;
3267;SDS011;1646;52.450;13.326;2023-04-09T20:46:59;41.00;;;21.70;;
3267;SDS011;1646;52.450;13.326;2023-04-09T20:51:57;36.37;;;20.70;;
3267;SDS011;1646;52.450;13.326;2023-04-09T20:56:57;40.73;;;21.43;;
3267;SDS011;1646;52.450;13.326;2023-04-09T21:01:55;41.93;;;20.43;;
3267;SDS011;1646;52.450;13.326;2023-04-09T21:06:54;35.70;;;20.90;;
3267;SDS011;1646;52.450;13.326;2023-04-09T21:11:52;35.10;;;20.20;;
3267;SDS011;1646;52.450;13.326;2023-04-09T21:16:52;41.40;;;21.60;;
3267;SDS011;1646;52.450;13.326;2023-04-09T21:21:51;37.57;;;20.30;;
3267;SDS011;1646;52.450;13.326;2023-04-09T21:26:49;36.00;;;20.10;;
3267;SDS011;1646;52.450;13.326;2023-04-09T21:31:48;41.10;;;20.50;;
3267;SDS011;1646;52.450;13.326;2023-04-09T21:36:47;38.70;;;21.10;;
3267;SDS011;1646;52.450;13.326;2023-04-09T21:41:46;39.80;;;20.93;;
3267;SDS011;1646;52.450;13.326;2023-04-09T21:46:44;41.93;;;22.17;;
3267;SDS011;1646;52.450;13.326;2023-04-09T21:51:43;39.20;;;21.73;;
3267;SDS011;1646;52.450;13.326;2023-04-09T21:56:43;45.70;;;22.83;;
3267;SDS011;1646;52.450;13.326;2023-04-09T22:01:41;41.10;;;22.97;;
3267;SDS011;1646;52.450;13.326;2023-04-09T22:06:41;46.27;;;23.17;;
3267;SDS011;1646;52.450;13.326;2023-04-09T22:11:43;40.60;;;22.30;;
3267;SDS011;1646;52.450;13.326;2023-04-09T22:16:41;44.27;;;23.10;;
3267;SDS011;1646;52.450;13.326;2023-04-09T22:21:40;41.97;;;22.33;;
3267;SDS011;1646;52.450;13.326;2023-04-09T22:26:38;45.30;;;22.20;;
3267;SDS011;1646;52.450;13.326;2023-04-09T22:31:40;38.93;;;22.60;;
3267;SDS011;1646;52.450;13.326;2023-04-09T22:36:39;42.90;;;23.10;;
3267;SDS011;1646;52.450;13.326;2023-04-09T22:41:37;43.37;;;23.33;;
3267;SDS011;1646;52.450;13.326;2023-04-09T22:46:35;41.90;;;23.27;;
3267;SDS011;1646;52.450;13.326;2023-04-09T22:51:35;49.73;;;26.77;;
3267;SDS011;1646;52.450;13.326;2023-04-09T22:56:36;48.30;;;24.63;;
3267;SDS011;1646;52.450;13.326;2023-04-09T23:01:35;43.70;;;22.10;;
3267;SDS011;1646;52.450;13.326;2023-04-09T23:06:34;40.40;;;22.90;;
3267;SDS011;1646;52.450;13.326;2023-04-09T23:11:33;49.73;;;24.80;;
3267;SDS011;1646;52.450;13.326;2023-04-09T23:16:33;44.73;;;23.37;;
3267;SDS011;1646;52.450;13.326;2023-04-09T23:21:31;45.50;;;24.37;;
3267;SDS011;1646;52.450;13.326;2023-04-09T23:26:31;46.67;;;25.40;;
3267;SDS011;1646;52.450;13.326;2023-04-09T23:31:29;44.53;;;25.20;;
3267;SDS011;1646;52.450;13.326;2023-04-09T23:36:27;39.70;;;23.33;;
3267;SDS011;1646;52.450;13.326;2023-04-09T23:41:26;45.83;;;23.33;;
3267;SDS011;1646;52.450;13.326;2023-04-09T23:46:25;40.90;;;23.10;;
3267;SDS011;1646;52.450;13.326;2023-04-09T23:51:24;44.27;;;23.57;;
3267;SDS011;1646;52.450;13.326;2023-04-09T23:56:22;43.20;;;23.13;;
